sensor_id;sensor_type;location;lat;lon;timestamp;pressure;altitude;pressure_sealevel;temperature;humidity
42385;BME280;28042;43.986;22.860;2022-12-10T00:00:40;100529.94;;;6.00;100.00
42385;BME280;28042;43.986;22.860;2022-12-10T00:03:06;100569.81;;;6.14;100.00
42385;BME280;28042;43.986;22.860;2022-12-10T00:05:34;100561.38;;;6.09;100.00
42385;BME280;28042;43.986;22.860;2022-12-10T00:08:00;100579.81;;;6.21;100.00
42385;BME280;28042;43.986;22.860;2022-12-10T00:10:26;100559.63;;;6.24;100.00
42385;BME280;28042;43.986;22.860;2022-12-10T00:12:51;100580.16;;;6.27;100.00
42385;BME280;28042;43.986;22.860;2022-12-10T00:15:17;100508.28;;;6.00;100.00
42385;BME280;28042;43.986;22.860;2022-12-10T00:17:42;100571.16;;;6.34;100.00
42385;BME280;28042;43.986;22.860;2022-12-10T00:20:08;100506.22;;;6.02;100.00
42385;BME280;28042;43.986;22.860;2022-12-10T00:22:34;100552.91;;;6.20;100.00
42385;BME280;28042;43.986;22.860;2022-12-10T00:25:00;100583.16;;;6.32;100.00
42385;BME280;28042;43.986;22.860;2022-12-10T00:27:25;100546.84;;;6.10;100.00
42385;BME280;28042;43.986;22.860;2022-12-10T00:29:51;100532.31;;;5.94;100.00
42385;BME280;28042;43.986;22.860;2022-12-10T00:32:16;100517.41;;;5.82;100.00
42385;BME280;28042;43.986;22.860;2022-12-10T00:34:42;100571.88;;;6.12;100.00
42385;BME280;28042;43.986;22.860;2022-12-10T00:37:07;100563.72;;;6.20;100.00
42385;BME280;28042;43.986;22.860;2022-12-10T00:39:33;100511.00;;;5.75;100.00
42385;BME280;28042;43.986;22.860;2022-12-10T00:41:58;100548.84;;;6.08;100.00
42385;BME280;28042;43.986;22.860;2022-12-10T00:44:24;100498.81;;;5.63;100.00
42385;BME280;28042;43.986;22.860;2022-12-10T00:46:49;100550.22;;;5.95;100.00
42385;BME280;28042;43.986;22.860;2022-12-10T00:49:15;100511.00;;;5.67;100.00
42385;BME280;28042;43.986;22.860;2022-12-10T00:51:40;100561.22;;;6.02;100.00
42385;BME280;28042;43.986;22.860;2022-12-10T00:54:06;100504.38;;;5.78;100.00
42385;BME280;28042;43.986;22.860;2022-12-10T00:56:33;100518.94;;;5.93;100.00
42385;BME280;28042;43.986;22.860;2022-12-10T00:58:59;100492.88;;;5.84;100.00
42385;BME280;28042;43.986;22.860;2022-12-10T01:01:33;100485.63;;;5.76;100.00
42385;BME280;28042;43.986;22.860;2022-12-10T01:04:08;100528.94;;;5.92;100.00
42385;BME280;28042;43.986;22.860;2022-12-10T01:06:55;100543.13;;;5.94;100.00
42385;BME280;28042;43.986;22.860;2022-12-10T01:09:23;100535.66;;;5.80;100.00
42385;BME280;28042;43.986;22.860;2022-12-10T01:11:50;100498.50;;;5.42;100.00
42385;BME280;28042;43.986;22.860;2022-12-10T01:14:25;100488.69;;;5.49;100.00
42385;BME280;28042;43.986;22.860;2022-12-10T01:16:58;100494.09;;;5.49;100.00
42385;BME280;28042;43.986;22.860;2022-12-10T01:19:23;100513.72;;;5.43;100.00
42385;BME280;28042;43.986;22.860;2022-12-10T01:21:53;100563.25;;;5.67;100.00
42385;BME280;28042;43.986;22.860;2022-12-10T01:24:23;100551.59;;;5.59;100.00
42385;BME280;28042;43.986;22.860;2022-12-10T01:26:49;100518.28;;;5.42;100.00
42385;BME280;28042;43.986;22.860;2022-12-10T01:29:16;100547.19;;;5.66;100.00
42385;BME280;28042;43.986;22.860;2022-12-10T01:31:42;100491.41;;;5.49;100.00
42385;BME280;28042;43.986;22.860;2022-12-10T01:34:09;100543.97;;;5.79;100.00
42385;BME280;28042;43.986;22.860;2022-12-10T01:36:38;100491.41;;;5.41;100.00
42385;BME280;28042;43.986;22.860;2022-12-10T01:39:06;100538.06;;;5.75;100.00
42385;BME280;28042;43.986;22.860;2022-12-10T01:41:34;100533.31;;;5.85;100.00
42385;BME280;28042;43.986;22.860;2022-12-10T01:46:28;100535.47;;;5.90;100.00
42385;BME280;28042;43.986;22.860;2022-12-10T01:48:55;100540.06;;;5.98;100.00
42385;BME280;28042;43.986;22.860;2022-12-10T01:51:23;100474.81;;;5.60;100.00
42385;BME280;28042;43.986;22.860;2022-12-10T01:53:49;100507.56;;;5.81;100.00
42385;BME280;28042;43.986;22.860;2022-12-10T01:56:17;100528.22;;;5.99;100.00
42385;BME280;28042;43.986;22.860;2022-12-10T01:58:43;100525.84;;;6.04;100.00
42385;BME280;28042;43.986;22.860;2022-12-10T02:01:10;100530.91;;;6.07;100.00
42385;BME280;28042;43.986;22.860;2022-12-10T02:14:57;100517.56;;;5.97;100.00
42385;BME280;28042;43.986;22.860;2022-12-10T02:17:46;100515.03;;;6.04;100.00
42385;BME280;28042;43.986;22.860;2022-12-10T02:20:28;100487.66;;;5.82;100.00
42385;BME280;28042;43.986;22.860;2022-12-10T02:22:58;100485.25;;;5.95;100.00
42385;BME280;28042;43.986;22.860;2022-12-10T02:25:45;100457.19;;;5.72;100.00
42385;BME280;28042;43.986;22.860;2022-12-10T02:31:03;100496.72;;;6.14;100.00
42385;BME280;28042;43.986;22.860;2022-12-10T02:33:31;100450.72;;;5.98;100.00
42385;BME280;28042;43.986;22.860;2022-12-10T02:35:59;100424.03;;;5.78;100.00
42385;BME280;28042;43.986;22.860;2022-12-10T02:38:31;100476.91;;;6.13;100.00
42385;BME280;28042;43.986;22.860;2022-12-10T02:41:02;100423.53;;;5.91;100.00
42385;BME280;28042;43.986;22.860;2022-12-10T02:43:30;100421.31;;;5.94;100.00
42385;BME280;28042;43.986;22.860;2022-12-10T02:45:57;100455.41;;;6.20;100.00
42385;BME280;28042;43.986;22.860;2022-12-10T02:48:24;100448.59;;;6.24;100.00
42385;BME280;28042;43.986;22.860;2022-12-10T02:50:50;100467.56;;;6.24;100.00
42385;BME280;28042;43.986;22.860;2022-12-10T02:53:16;100418.13;;;5.91;100.00
42385;BME280;28042;43.986;22.860;2022-12-10T02:55:53;100487.06;;;6.19;100.00
42385;BME280;28042;43.986;22.860;2022-12-10T02:58:38;100479.44;;;6.15;100.00
42385;BME280;28042;43.986;22.860;2022-12-10T03:01:25;100492.50;;;6.03;100.00
42385;BME280;28042;43.986;22.860;2022-12-10T03:04:03;100489.81;;;5.95;100.00
42385;BME280;28042;43.986;22.860;2022-12-10T03:06:39;100480.50;;;5.89;100.00
42385;BME280;28042;43.986;22.860;2022-12-10T03:11:38;100468.34;;;5.85;100.00
42385;BME280;28042;43.986;22.860;2022-12-10T03:14:25;100406.50;;;5.58;100.00
42385;BME280;28042;43.986;22.860;2022-12-10T03:16:58;100433.16;;;5.77;100.00
42385;BME280;28042;43.986;22.860;2022-12-10T03:19:44;100454.25;;;6.06;100.00
42385;BME280;28042;43.986;22.860;2022-12-10T03:22:11;100468.47;;;6.08;100.00
42385;BME280;28042;43.986;22.860;2022-12-10T03:24:39;100470.88;;;5.95;100.00
42385;BME280;28042;43.986;22.860;2022-12-10T03:27:07;100481.88;;;5.85;100.00
42385;BME280;28042;43.986;22.860;2022-12-10T03:29:41;100466.97;;;5.81;100.00
42385;BME280;28042;43.986;22.860;2022-12-10T03:32:10;100464.97;;;5.75;100.00
42385;BME280;28042;43.986;22.860;2022-12-10T03:34:36;100412.44;;;5.45;100.00
42385;BME280;28042;43.986;22.860;2022-12-10T03:37:03;100404.31;;;5.45;100.00
42385;BME280;28042;43.986;22.860;2022-12-10T03:39:30;100463.94;;;5.84;100.00
42385;BME280;28042;43.986;22.860;2022-12-10T03:41:56;100450.44;;;5.92;100.00
42385;BME280;28042;43.986;22.860;2022-12-10T03:44:32;100456.13;;;5.98;100.00
42385;BME280;28042;43.986;22.860;2022-12-10T03:46:58;100438.03;;;5.90;100.00
42385;BME280;28042;43.986;22.860;2022-12-10T03:49:24;100435.88;;;5.93;100.00
42385;BME280;28042;43.986;22.860;2022-12-10T03:51:50;100391.56;;;5.78;100.00
42385;BME280;28042;43.986;22.860;2022-12-10T03:54:15;100434.56;;;6.20;100.00
42385;BME280;28042;43.986;22.860;2022-12-10T03:56:41;100441.06;;;6.03;100.00
42385;BME280;28042;43.986;22.860;2022-12-10T03:59:06;100441.88;;;6.12;100.00
42385;BME280;28042;43.986;22.860;2022-12-10T04:01:32;100461.50;;;6.14;100.00
42385;BME280;28042;43.986;22.860;2022-12-10T04:03:57;100449.00;;;6.13;100.00
42385;BME280;28042;43.986;22.860;2022-12-10T04:06:23;100474.53;;;6.18;100.00
42385;BME280;28042;43.986;22.860;2022-12-10T04:08:49;100409.47;;;5.79;100.00
42385;BME280;28042;43.986;22.860;2022-12-10T04:11:15;100465.09;;;6.06;100.00
42385;BME280;28042;43.986;22.860;2022-12-10T04:13:41;100409.19;;;5.66;100.00
42385;BME280;28042;43.986;22.860;2022-12-10T04:16:26;100480.69;;;5.96;100.00
42385;BME280;28042;43.986;22.860;2022-12-10T04:19:14;100460.22;;;5.93;100.00
42385;BME280;28042;43.986;22.860;2022-12-10T04:21:40;100451.75;;;5.97;100.00
42385;BME280;28042;43.986;22.860;2022-12-10T04:24:35;100449.19;;;6.03;100.00
42385;BME280;28042;43.986;22.860;2022-12-10T04:27:26;100456.44;;;6.11;100.00
42385;BME280;28042;43.986;22.860;2022-12-10T04:29:52;100449.00;;;6.13;100.00
42385;BME280;28042;43.986;22.860;2022-12-10T04:32:18;100459.47;;;6.16;100.00
42385;BME280;28042;43.986;22.860;2022-12-10T04:34:43;100457.06;;;6.21;100.00
42385;BME280;28042;43.986;22.860;2022-12-10T04:37:09;100460.44;;;6.23;100.00
42385;BME280;28042;43.986;22.860;2022-12-10T04:39:36;100441.66;;;6.21;100.00
42385;BME280;28042;43.986;22.860;2022-12-10T04:42:03;100458.97;;;6.12;100.00
42385;BME280;28042;43.986;22.860;2022-12-10T04:44:28;100450.41;;;6.01;100.00
42385;BME280;28042;43.986;22.860;2022-12-10T04:46:54;100449.00;;;6.05;100.00
42385;BME280;28042;43.986;22.860;2022-12-10T04:49:19;100448.34;;;6.03;100.00
42385;BME280;28042;43.986;22.860;2022-12-10T04:51:44;100428.00;;;6.07;100.00
42385;BME280;28042;43.986;22.860;2022-12-10T04:54:10;100457.66;;;6.08;100.00
42385;BME280;28042;43.986;22.860;2022-12-10T04:56:35;100446.31;;;6.05;100.00
42385;BME280;28042;43.986;22.860;2022-12-10T04:59:01;100455.59;;;6.10;100.00
42385;BME280;28042;43.986;22.860;2022-12-10T05:01:27;100459.81;;;6.13;100.00
42385;BME280;28042;43.986;22.860;2022-12-10T05:03:53;100464.75;;;6.09;100.00
42385;BME280;28042;43.986;22.860;2022-12-10T05:06:18;100460.50;;;6.07;100.00
42385;BME280;28042;43.986;22.860;2022-12-10T05:08:44;100459.81;;;6.13;100.00
42385;BME280;28042;43.986;22.860;2022-12-10T05:11:10;100453.91;;;6.09;100.00
42385;BME280;28042;43.986;22.860;2022-12-10T05:13:36;100443.91;;;6.18;100.00
42385;BME280;28042;43.986;22.860;2022-12-10T05:16:02;100438.50;;;6.18;100.00
42385;BME280;28042;43.986;22.860;2022-12-10T05:18:27;100453.38;;;6.14;100.00
42385;BME280;28042;43.986;22.860;2022-12-10T05:20:53;100455.09;;;6.07;100.00
42385;BME280;28042;43.986;22.860;2022-12-10T05:23:18;100444.47;;;5.97;100.00
42385;BME280;28042;43.986;22.860;2022-12-10T05:28:24;100451.69;;;6.13;100.00
42385;BME280;28042;43.986;22.860;2022-12-10T05:30:49;100451.03;;;6.11;100.00
42385;BME280;28042;43.986;22.860;2022-12-10T05:33:14;100452.69;;;6.20;100.00
42385;BME280;28042;43.986;22.860;2022-12-10T05:35:40;100439.44;;;6.25;100.00
42385;BME280;28042;43.986;22.860;2022-12-10T05:38:06;100440.44;;;6.32;100.00
42385;BME280;28042;43.986;22.860;2022-12-10T05:40:35;100438.34;;;6.42;100.00
42385;BME280;28042;43.986;22.860;2022-12-10T05:43:00;100438.00;;;6.45;100.00
42385;BME280;28042;43.986;22.860;2022-12-10T05:45:26;100438.47;;;6.49;100.00
42385;BME280;28042;43.986;22.860;2022-12-10T05:47:51;100433.78;;;6.43;100.00
42385;BME280;28042;43.986;22.860;2022-12-10T05:50:16;100444.09;;;6.47;100.00
42385;BME280;28042;43.986;22.860;2022-12-10T05:52:42;100449.84;;;6.53;100.00
42385;BME280;28042;43.986;22.860;2022-12-10T05:55:07;100442.72;;;6.51;100.00
42385;BME280;28042;43.986;22.860;2022-12-10T05:57:32;100429.66;;;6.55;100.00
42385;BME280;28042;43.986;22.860;2022-12-10T05:59:58;100432.84;;;6.59;100.00
42385;BME280;28042;43.986;22.860;2022-12-10T06:02:23;100429.84;;;6.54;100.00
42385;BME280;28042;43.986;22.860;2022-12-10T06:04:48;100423.38;;;6.55;100.00
42385;BME280;28042;43.986;22.860;2022-12-10T06:07:14;100427.13;;;6.54;100.00
42385;BME280;28042;43.986;22.860;2022-12-10T06:09:39;100432.22;;;6.48;100.00
42385;BME280;28042;43.986;22.860;2022-12-10T06:12:04;100433.06;;;6.49;100.00
42385;BME280;28042;43.986;22.860;2022-12-10T06:14:30;100433.56;;;6.53;100.00
42385;BME280;28042;43.986;22.860;2022-12-10T06:16:55;100430.88;;;6.53;100.00
42385;BME280;28042;43.986;22.860;2022-12-10T06:19:20;100428.16;;;6.53;100.00
42385;BME280;28042;43.986;22.860;2022-12-10T06:21:45;100426.81;;;6.48;100.00
42385;BME280;28042;43.986;22.860;2022-12-10T06:24:11;100433.06;;;6.49;100.00
42385;BME280;28042;43.986;22.860;2022-12-10T06:26:36;100439.59;;;6.32;100.00
42385;BME280;28042;43.986;22.860;2022-12-10T06:29:01;100445.06;;;6.15;100.00
42385;BME280;28042;43.986;22.860;2022-12-10T06:31:27;100442.56;;;6.06;100.00
42385;BME280;28042;43.986;22.860;2022-12-10T06:33:52;100447.34;;;6.04;100.00
42385;BME280;28042;43.986;22.860;2022-12-10T06:36:19;100443.94;;;6.10;100.00
42385;BME280;28042;43.986;22.860;2022-12-10T06:38:44;100447.66;;;6.09;100.00
42385;BME280;28042;43.986;22.860;2022-12-10T06:41:11;100448.84;;;6.06;100.00
42385;BME280;28042;43.986;22.860;2022-12-10T06:43:37;100449.47;;;6.16;100.00
42385;BME280;28042;43.986;22.860;2022-12-10T06:46:06;100449.69;;;6.07;100.00
42385;BME280;28042;43.986;22.860;2022-12-10T06:48:31;100451.66;;;6.21;100.00
42385;BME280;28042;43.986;22.860;2022-12-10T06:50:57;100434.72;;;6.27;100.00
42385;BME280;28042;43.986;22.860;2022-12-10T06:53:22;100446.03;;;6.31;100.00
42385;BME280;28042;43.986;22.860;2022-12-10T06:55:47;100453.97;;;6.32;100.00
42385;BME280;28042;43.986;22.860;2022-12-10T06:58:13;100448.91;;;6.29;100.00
42385;BME280;28042;43.986;22.860;2022-12-10T07:00:38;100444.19;;;6.23;100.00
42385;BME280;28042;43.986;22.860;2022-12-10T07:03:03;100450.28;;;6.25;100.00
42385;BME280;28042;43.986;22.860;2022-12-10T07:05:29;100453.34;;;6.22;100.00
42385;BME280;28042;43.986;22.860;2022-12-10T07:07:55;100441.47;;;6.31;100.00
42385;BME280;28042;43.986;22.860;2022-12-10T07:10:20;100448.91;;;6.29;100.00
42385;BME280;28042;43.986;22.860;2022-12-10T07:12:46;100456.88;;;6.31;100.00
42385;BME280;28042;43.986;22.860;2022-12-10T07:15:11;100458.28;;;6.18;100.00
42385;BME280;28042;43.986;22.860;2022-12-10T07:17:37;100455.75;;;6.17;100.00
42385;BME280;28042;43.986;22.860;2022-12-10T07:20:02;100444.72;;;6.27;100.00
42385;BME280;28042;43.986;22.860;2022-12-10T07:22:27;100447.84;;;6.38;100.00
42385;BME280;28042;43.986;22.860;2022-12-10T07:24:53;100437.34;;;6.43;100.00
42385;BME280;28042;43.986;22.860;2022-12-10T07:27:18;100444.03;;;6.56;100.00
42385;BME280;28042;43.986;22.860;2022-12-10T07:29:44;100435.38;;;6.60;100.00
42385;BME280;28042;43.986;22.860;2022-12-10T07:32:10;100430.06;;;6.67;100.00
42385;BME280;28042;43.986;22.860;2022-12-10T07:34:35;100425.31;;;6.69;100.00
42385;BME280;28042;43.986;22.860;2022-12-10T07:37:00;100415.75;;;6.81;100.00
42385;BME280;28042;43.986;22.860;2022-12-10T07:39:26;100409.97;;;6.84;100.00
42385;BME280;28042;43.986;22.860;2022-12-10T07:41:51;100413.13;;;6.96;100.00
42385;BME280;28042;43.986;22.860;2022-12-10T07:44:21;100389.63;;;6.88;100.00
42385;BME280;28042;43.986;22.860;2022-12-10T07:46:47;100398.53;;;6.97;100.00
42385;BME280;28042;43.986;22.860;2022-12-10T07:49:13;100390.25;;;7.13;100.00
42385;BME280;28042;43.986;22.860;2022-12-10T07:51:39;100392.13;;;7.13;100.00
42385;BME280;28042;43.986;22.860;2022-12-10T07:54:04;100402.84;;;7.06;100.00
42385;BME280;28042;43.986;22.860;2022-12-10T07:56:30;100393.56;;;7.00;100.00
42385;BME280;28042;43.986;22.860;2022-12-10T07:58:55;100403.97;;;7.12;100.00
42385;BME280;28042;43.986;22.860;2022-12-10T08:01:22;100409.38;;;6.97;100.00
42385;BME280;28042;43.986;22.860;2022-12-10T08:03:48;100411.25;;;6.96;100.00
42385;BME280;28042;43.986;22.860;2022-12-10T08:06:14;100407.25;;;7.07;100.00
42385;BME280;28042;43.986;22.860;2022-12-10T08:08:40;100407.63;;;7.04;100.00
42385;BME280;28042;43.986;22.860;2022-12-10T08:11:07;100420.31;;;7.03;100.00
42385;BME280;28042;43.986;22.860;2022-12-10T08:13:32;100408.53;;;6.96;100.00
42385;BME280;28042;43.986;22.860;2022-12-10T08:16:05;100417.00;;;6.93;100.00
42385;BME280;28042;43.986;22.860;2022-12-10T08:18:32;100424.19;;;6.86;100.00
42385;BME280;28042;43.986;22.860;2022-12-10T08:20:57;100408.59;;;6.88;100.00
42385;BME280;28042;43.986;22.860;2022-12-10T08:23:23;100405.38;;;7.07;100.00
42385;BME280;28042;43.986;22.860;2022-12-10T08:25:48;100404.03;;;7.26;100.00
42385;BME280;28042;43.986;22.860;2022-12-10T08:28:13;100400.69;;;7.39;100.00
42385;BME280;28042;43.986;22.860;2022-12-10T08:30:39;100389.75;;;7.47;100.00
42385;BME280;28042;43.986;22.860;2022-12-10T08:33:04;100388.66;;;7.56;100.00
42385;BME280;28042;43.986;22.860;2022-12-10T08:35:29;100390.50;;;7.71;100.00
42385;BME280;28042;43.986;22.860;2022-12-10T08:37:55;100365.25;;;7.85;100.00
42385;BME280;28042;43.986;22.860;2022-12-10T08:40:20;100354.84;;;7.74;100.00
42385;BME280;28042;43.986;22.860;2022-12-10T08:42:45;100338.94;;;7.56;100.00
42385;BME280;28042;43.986;22.860;2022-12-10T08:45:11;100344.44;;;7.62;100.00
42385;BME280;28042;43.986;22.860;2022-12-10T08:47:36;100341.75;;;7.77;100.00
42385;BME280;28042;43.986;22.860;2022-12-10T08:50:02;100340.91;;;7.77;100.00
42385;BME280;28042;43.986;22.860;2022-12-10T08:52:28;100342.97;;;7.75;100.00
42385;BME280;28042;43.986;22.860;2022-12-10T08:54:54;100355.13;;;7.79;100.00
42385;BME280;28042;43.986;22.860;2022-12-10T08:57:19;100352.50;;;7.71;100.00
42385;BME280;28042;43.986;22.860;2022-12-10T08:59:45;100358.94;;;7.55;100.00
42385;BME280;28042;43.986;22.860;2022-12-10T09:02:10;100361.13;;;7.59;100.00
42385;BME280;28042;43.986;22.860;2022-12-10T09:04:36;100349.03;;;7.62;100.00
42385;BME280;28042;43.986;22.860;2022-12-10T09:07:01;100360.75;;;7.62;100.00
42385;BME280;28042;43.986;22.860;2022-12-10T09:09:26;100354.38;;;7.55;100.00
42385;BME280;28042;43.986;22.860;2022-12-10T09:11:52;100342.66;;;7.55;100.00
42385;BME280;28042;43.986;22.860;2022-12-10T09:14:17;100342.78;;;7.61;100.00
42385;BME280;28042;43.986;22.860;2022-12-10T09:16:43;100357.28;;;7.83;100.00
42385;BME280;28042;43.986;22.860;2022-12-10T09:19:08;100366.16;;;7.92;100.00
42385;BME280;28042;43.986;22.860;2022-12-10T09:21:33;100361.84;;;7.98;100.00
42385;BME280;28042;43.986;22.860;2022-12-10T09:23:59;100361.28;;;8.02;100.00
42385;BME280;28042;43.986;22.860;2022-12-10T09:26:25;100365.53;;;7.75;100.00
42385;BME280;28042;43.986;22.860;2022-12-10T09:28:50;100364.31;;;7.78;100.00
42385;BME280;28042;43.986;22.860;2022-12-10T09:31:17;100362.91;;;7.82;100.00
42385;BME280;28042;43.986;22.860;2022-12-10T09:33:43;100355.97;;;7.94;100.00
42385;BME280;28042;43.986;22.860;2022-12-10T09:36:09;100343.97;;;7.88;100.00
42385;BME280;28042;43.986;22.860;2022-12-10T09:38:36;100333.38;;;8.08;100.00
42385;BME280;28042;43.986;22.860;2022-12-10T09:41:12;100320.38;;;8.25;100.00
42385;BME280;28042;43.986;22.860;2022-12-10T09:43:53;100304.94;;;8.26;100.00
42385;BME280;28042;43.986;22.860;2022-12-10T09:46:26;100300.22;;;7.98;100.00
42385;BME280;28042;43.986;22.860;2022-12-10T09:51:25;100278.13;;;8.22;100.00
42385;BME280;28042;43.986;22.860;2022-12-10T09:53:53;100274.00;;;8.27;100.00
42385;BME280;28042;43.986;22.860;2022-12-10T09:56:25;100274.34;;;8.17;100.00
42385;BME280;28042;43.986;22.860;2022-12-10T09:58:51;100269.75;;;8.39;100.00
42385;BME280;28042;43.986;22.860;2022-12-10T10:01:18;100278.34;;;8.42;100.00
42385;BME280;28042;43.986;22.860;2022-12-10T10:03:44;100293.03;;;8.27;100.00
42385;BME280;28042;43.986;22.860;2022-12-10T10:06:14;100302.38;;;8.39;100.00
42385;BME280;28042;43.986;22.860;2022-12-10T10:08:41;100283.91;;;7.98;100.00
42385;BME280;28042;43.986;22.860;2022-12-10T10:11:11;100276.13;;;7.74;100.00
42385;BME280;28042;43.986;22.860;2022-12-10T10:13:40;100264.59;;;7.72;100.00
42385;BME280;28042;43.986;22.860;2022-12-10T10:18:46;100268.94;;;7.66;100.00
42385;BME280;28042;43.986;22.860;2022-12-10T10:21:19;100255.16;;;7.68;100.00
42385;BME280;28042;43.986;22.860;2022-12-10T10:23:45;100254.50;;;7.65;100.00
42385;BME280;28042;43.986;22.860;2022-12-10T10:26:11;100254.78;;;7.71;100.00
42385;BME280;28042;43.986;22.860;2022-12-10T10:28:36;100246.69;;;7.92;100.00
42385;BME280;28042;43.986;22.860;2022-12-10T10:31:07;100224.72;;;8.08;100.00
42385;BME280;28042;43.986;22.860;2022-12-10T10:33:43;100221.59;;;8.11;100.00
42385;BME280;28042;43.986;22.860;2022-12-10T10:36:12;100223.41;;;8.26;100.00
42385;BME280;28042;43.986;22.860;2022-12-10T10:38:38;100223.66;;;8.31;100.00
42385;BME280;28042;43.986;22.860;2022-12-10T10:41:03;100224.13;;;8.34;100.00
42385;BME280;28042;43.986;22.860;2022-12-10T10:43:34;100213.63;;;8.31;100.00
42385;BME280;28042;43.986;22.860;2022-12-10T10:48:36;100200.56;;;8.41;100.00
42385;BME280;28042;43.986;22.860;2022-12-10T10:51:06;100199.97;;;8.25;100.00
42385;BME280;28042;43.986;22.860;2022-12-10T10:53:39;100201.28;;;8.07;100.00
42385;BME280;28042;43.986;22.860;2022-12-10T10:58:43;100200.50;;;7.92;100.00
42385;BME280;28042;43.986;22.860;2022-12-10T11:01:11;100208.34;;;8.02;100.00
42385;BME280;28042;43.986;22.860;2022-12-10T11:03:36;100196.50;;;8.09;100.00
42385;BME280;28042;43.986;22.860;2022-12-10T11:06:04;100186.00;;;8.06;100.00
42385;BME280;28042;43.986;22.860;2022-12-10T11:08:31;100168.25;;;8.04;100.00
42385;BME280;28042;43.986;22.860;2022-12-10T11:11:06;100154.97;;;8.15;100.00
42385;BME280;28042;43.986;22.860;2022-12-10T11:13:35;100151.72;;;8.27;100.00
42385;BME280;28042;43.986;22.860;2022-12-10T11:16:21;100148.34;;;8.46;100.00
42385;BME280;28042;43.986;22.860;2022-12-10T11:19:00;100146.91;;;8.78;100.00
42385;BME280;28042;43.986;22.860;2022-12-10T11:21:33;100137.47;;;9.15;100.00
42385;BME280;28042;43.986;22.860;2022-12-10T11:23:59;100130.91;;;9.03;100.00
42385;BME280;28042;43.986;22.860;2022-12-10T11:29:08;100141.69;;;9.24;100.00
42385;BME280;28042;43.986;22.860;2022-12-10T11:31:45;100136.53;;;9.43;100.00
42385;BME280;28042;43.986;22.860;2022-12-10T12:00:25;100095.00;;;9.21;100.00
42385;BME280;28042;43.986;22.860;2022-12-10T12:14:01;100072.44;;;9.33;100.00
42385;BME280;28042;43.986;22.860;2022-12-10T12:16:38;100078.31;;;9.30;100.00
42385;BME280;28042;43.986;22.860;2022-12-10T12:19:07;100077.00;;;9.26;100.00
42385;BME280;28042;43.986;22.860;2022-12-10T12:21:34;100078.25;;;9.17;100.00
42385;BME280;28042;43.986;22.860;2022-12-10T12:24:14;100071.94;;;9.10;100.00
42385;BME280;28042;43.986;22.860;2022-12-10T12:26:52;100074.41;;;8.98;100.00
42385;BME280;28042;43.986;22.860;2022-12-10T12:31:52;100062.97;;;8.68;100.00
42385;BME280;28042;43.986;22.860;2022-12-10T12:34:33;100055.84;;;8.67;100.00
42385;BME280;28042;43.986;22.860;2022-12-10T12:37:02;100072.38;;;8.66;100.00
42385;BME280;28042;43.986;22.860;2022-12-10T12:39:36;100069.28;;;8.75;100.00
42385;BME280;28042;43.986;22.860;2022-12-10T12:44:31;100059.22;;;8.76;100.00
42385;BME280;28042;43.986;22.860;2022-12-10T12:47:01;100042.75;;;8.84;100.00
42385;BME280;28042;43.986;22.860;2022-12-10T12:49:34;100044.53;;;8.64;100.00
42385;BME280;28042;43.986;22.860;2022-12-10T12:52:14;100033.47;;;8.65;100.00
42385;BME280;28042;43.986;22.860;2022-12-10T12:54:45;100024.44;;;8.58;100.00
42385;BME280;28042;43.986;22.860;2022-12-10T13:04:27;100009.16;;;8.22;100.00
42385;BME280;28042;43.986;22.860;2022-12-10T13:09:50;100027.25;;;8.37;100.00
42385;BME280;28042;43.986;22.860;2022-12-10T13:12:27;100017.91;;;8.46;100.00
42385;BME280;28042;43.986;22.860;2022-12-10T13:17:33;100011.50;;;8.60;100.00
42385;BME280;28042;43.986;22.860;2022-12-10T13:22:54;100007.72;;;8.61;100.00
42385;BME280;28042;43.986;22.860;2022-12-10T13:25:20;99997.44;;;8.57;100.00
42385;BME280;28042;43.986;22.860;2022-12-10T13:28:15;99998.91;;;8.59;100.00
42385;BME280;28042;43.986;22.860;2022-12-10T13:30:41;100003.63;;;8.37;100.00
42385;BME280;28042;43.986;22.860;2022-12-10T13:33:18;100001.38;;;8.47;100.00
42385;BME280;28042;43.986;22.860;2022-12-10T13:38:39;100021.03;;;8.43;100.00
42385;BME280;28042;43.986;22.860;2022-12-10T13:41:06;100011.72;;;8.31;100.00
42385;BME280;28042;43.986;22.860;2022-12-10T13:43:53;100000.72;;;8.39;100.00
42385;BME280;28042;43.986;22.860;2022-12-10T13:49:16;99985.41;;;8.03;100.00
42385;BME280;28042;43.986;22.860;2022-12-10T13:51:48;99995.78;;;8.21;100.00
42385;BME280;28042;43.986;22.860;2022-12-10T13:54:26;99998.53;;;8.28;100.00
42385;BME280;28042;43.986;22.860;2022-12-10T13:59:29;100007.41;;;8.08;100.00
42385;BME280;28042;43.986;22.860;2022-12-10T14:06:53;100002.91;;;7.94;100.00
42385;BME280;28042;43.986;22.860;2022-12-10T14:09:19;100009.22;;;8.01;100.00
42385;BME280;28042;43.986;22.860;2022-12-10T14:11:57;100021.84;;;8.15;100.00
42385;BME280;28042;43.986;22.860;2022-12-10T14:14:29;100014.75;;;8.14;100.00
42385;BME280;28042;43.986;22.860;2022-12-10T14:16:58;100004.44;;;8.03;100.00
42385;BME280;28042;43.986;22.860;2022-12-10T14:19:24;100001.66;;;7.69;100.00
42385;BME280;28042;43.986;22.860;2022-12-10T14:21:51;99992.09;;;7.73;100.00
42385;BME280;28042;43.986;22.860;2022-12-10T14:24:30;99978.13;;;7.76;100.00
42385;BME280;28042;43.986;22.860;2022-12-10T14:27:19;99966.63;;;7.74;100.00
42385;BME280;28042;43.986;22.860;2022-12-10T14:29:47;99959.75;;;7.78;100.00
42385;BME280;28042;43.986;22.860;2022-12-10T14:32:16;99953.13;;;7.87;100.00